Time;durP1;ratioP1;P1;durP2;ratioP2;P2;SDS_P1;SDS_P2;PMS_P1;PMS_P2;Temp;Humidity;BMP_temperature;BMP_pressure;BME280_temperature;BME280_humidity;BME280_pressure;Samples;Min_cycle;Max_cycle;Signal;HPM_P1;HPM_P2
2021/06/27 00:00:21;;;;;;;3.83;3.50;;;17.60;99.90;;;;;;5032990;28;20781;-70
2021/06/27 00:02:49;;;;;;;5.50;4.00;;;17.80;99.90;;;;;;5033290;28;20399;-70
2021/06/27 00:05:21;;;;;;;5.17;3.80;;;17.90;99.90;;;;;;5033010;28;20411;-70
2021/06/27 00:07:51;;;;;;;5.20;4.50;;;17.80;99.90;;;;;;5034813;28;20464;-70
2021/06/27 00:10:23;;;;;;;6.53;4.10;;;17.80;99.90;;;;;;5033051;28;20425;-70
2021/06/27 00:12:51;;;;;;;5.30;4.80;;;17.80;99.90;;;;;;5034142;28;20399;-71
2021/06/27 00:15:23;;;;;;;4.50;4.10;;;17.80;99.90;;;;;;5038173;28;20441;-71
2021/06/27 00:17:52;;;;;;;6.23;4.40;;;17.60;99.90;;;;;;5038518;28;20435;-70
2021/06/27 00:20:25;;;;;;;4.00;3.57;;;17.60;99.90;;;;;;5036451;28;20414;-70
2021/06/27 00:22:54;;;;;;;5.73;5.13;;;17.70;99.90;;;;;;5036539;28;20405;-70
2021/06/27 00:25:25;;;;;;;5.07;4.50;;;17.70;99.90;;;;;;5036281;28;20426;-70
2021/06/27 00:27:55;;;;;;;4.70;4.30;;;17.70;99.90;;;;;;5035084;28;20445;-71
2021/06/27 00:30:25;;;;;;;5.03;4.10;;;17.50;99.90;;;;;;5033747;28;20479;-68
2021/06/27 00:32:54;;;;;;;4.67;4.17;;;17.50;99.90;;;;;;5030964;28;20419;-69
2021/06/27 00:35:24;;;;;;;5.13;4.60;;;17.50;99.90;;;;;;5030773;28;20465;-69
2021/06/27 00:37:53;;;;;;;7.80;4.67;;;17.50;99.90;;;;;;5030978;28;20473;-70
2021/06/27 00:40:25;;;;;;;5.60;5.00;;;17.40;99.90;;;;;;5031171;28;20855;-69
2021/06/27 00:42:54;;;;;;;7.13;5.03;;;17.40;99.90;;;;;;5030340;28;20489;-70
2021/06/27 00:45:25;;;;;;;4.87;4.43;;;17.40;99.90;;;;;;5031683;28;20406;-70
2021/06/27 00:47:54;;;;;;;5.20;4.80;;;17.40;99.90;;;;;;5030843;28;20474;-70
2021/06/27 00:50:26;;;;;;;5.33;4.90;;;17.60;99.90;;;;;;5032327;28;20427;-69
2021/06/27 00:52:55;;;;;;;5.63;4.27;;;17.60;99.90;;;;;;5033751;28;20932;-68
2021/06/27 00:55:23;;;;;;;6.63;5.00;;;17.60;99.90;;;;;;5032693;28;20421;-68
2021/06/27 00:57:53;;;;;;;5.03;4.53;;;17.50;99.90;;;;;;5030914;28;20424;-69
2021/06/27 01:00:25;;;;;;;5.97;5.37;;;17.40;99.90;;;;;;5029064;28;20435;-69
2021/06/27 01:02:54;;;;;;;5.63;4.80;;;17.30;99.90;;;;;;5030197;28;20725;-68
2021/06/27 01:05:27;;;;;;;7.30;6.60;;;17.20;99.90;;;;;;5030247;28;20924;-69
2021/06/27 01:07:56;;;;;;;5.87;5.30;;;17.20;99.90;;;;;;5030239;28;20441;-68
2021/06/27 01:10:25;;;;;;;6.20;5.60;;;17.30;99.90;;;;;;5030206;28;20452;-68
2021/06/27 01:12:54;;;;;;;5.53;4.80;;;17.30;99.90;;;;;;5029818;28;20410;-69
2021/06/27 01:15:23;;;;;;;6.03;5.50;;;17.50;99.90;;;;;;5030106;28;20407;-69
2021/06/27 01:17:54;;;;;;;8.60;5.00;;;17.60;99.90;;;;;;5030389;28;20427;-68
2021/06/27 01:20:25;;;;;;;5.17;4.70;;;17.60;99.90;;;;;;5030154;28;20501;-69
2021/06/27 01:22:55;;;;;;;6.30;5.27;;;17.50;99.90;;;;;;5032449;28;20856;-68
2021/06/27 01:25:26;;;;;;;5.03;4.50;;;17.40;99.90;;;;;;5033729;28;20406;-69
2021/06/27 01:27:56;;;;;;;6.00;5.33;;;17.20;99.90;;;;;;5033693;28;20480;-70
2021/06/27 01:30:25;;;;;;;9.40;5.37;;;17.20;99.90;;;;;;5033728;28;20414;-69
2021/06/27 01:32:56;;;;;;;5.60;4.20;;;17.50;99.90;;;;;;5033486;28;20538;-69
2021/06/27 01:35:27;;;;;;;5.80;5.30;;;17.70;99.90;;;;;;5034184;28;20423;-69
2021/06/27 01:37:58;;;;;;;6.00;5.37;;;17.80;99.90;;;;;;5033642;28;20398;-69
2021/06/27 01:40:29;;;;;;;5.60;4.70;;;17.60;99.90;;;;;;5032121;28;20765;-69
2021/06/27 01:43:14;;;;;;;7.13;4.83;;;17.40;99.90;;;;;;5033445;28;20928;-69
2021/06/27 01:45:45;;;;;;;6.17;4.97;;;17.30;99.90;;;;;;5033582;28;20511;-69
2021/06/27 01:48:14;;;;;;;6.40;5.10;;;17.10;99.90;;;;;;5032284;28;20458;-68
2021/06/27 01:50:45;;;;;;;4.87;4.30;;;17.00;99.90;;;;;;5033318;28;20421;-68
2021/06/27 01:53:17;;;;;;;7.80;5.77;;;16.90;99.90;;;;;;5033300;28;20519;-70
2021/06/27 01:55:46;;;;;;;7.27;5.90;;;16.90;99.90;;;;;;5033337;28;20405;-68
2021/06/27 01:58:14;;;;;;;5.67;4.77;;;17.00;99.90;;;;;;5033307;28;20395;-67
2021/06/27 02:00:43;;;;;;;7.43;5.00;;;17.00;99.90;;;;;;5031713;28;20515;-68
2021/06/27 02:03:17;;;;;;;6.40;5.73;;;17.00;99.90;;;;;;5032991;28;20406;-69
2021/06/27 02:05:46;;;;;;;6.60;6.00;;;16.90;99.90;;;;;;5033281;28;20419;-70
2021/06/27 02:08:15;;;;;;;6.47;4.80;;;16.70;99.90;;;;;;5033418;28;21030;-69
2021/06/27 02:10:43;;;;;;;6.60;5.93;;;16.60;99.90;;;;;;5032799;28;20419;-70
2021/06/27 02:13:12;;;;;;;6.70;5.03;;;16.60;99.90;;;;;;5033043;28;20742;-70
2021/06/27 02:15:41;;;;;;;6.77;6.07;;;16.40;99.90;;;;;;5033469;28;20453;-69
2021/06/27 02:18:21;;;;;;;8.20;5.60;;;16.30;99.90;;;;;;5033649;28;20409;-69
2021/06/27 02:20:49;;;;;;;6.60;4.93;;;16.50;99.90;;;;;;5033539;28;20447;-70
2021/06/27 02:23:19;;;;;;;5.83;4.90;;;16.80;99.90;;;;;;5033059;28;20482;-70
2021/06/27 02:25:47;;;;;;;5.43;4.93;;;16.80;99.90;;;;;;5033243;28;20403;-69
2021/06/27 02:28:15;;;;;;;5.77;4.80;;;16.70;99.90;;;;;;5033156;28;20459;-69
2021/06/27 02:30:44;;;;;;;5.77;5.27;;;16.70;99.90;;;;;;5032000;28;20546;-69
2021/06/27 02:33:12;;;;;;;9.23;5.60;;;16.70;99.90;;;;;;5031851;28;20530;-70
2021/06/27 02:35:40;;;;;;;5.50;5.00;;;16.80;99.90;;;;;;5032741;28;20466;-69
2021/06/27 02:38:08;;;;;;;6.73;5.80;;;16.90;99.90;;;;;;5032717;28;20431;-70
2021/06/27 02:40:41;;;;;;;5.40;4.87;;;16.80;99.90;;;;;;5032856;28;20434;-69
2021/06/27 02:43:11;;;;;;;6.90;5.30;;;16.90;99.90;;;;;;5033055;28;20413;-69
2021/06/27 02:45:40;;;;;;;6.27;5.27;;;17.20;99.90;;;;;;5033400;28;20416;-69
2021/06/27 02:48:09;;;;;;;6.33;5.73;;;17.20;99.90;;;;;;5033212;28;20606;-69
2021/06/27 02:50:38;;;;;;;5.20;4.33;;;17.20;99.90;;;;;;5033134;28;20436;-68
2021/06/27 02:53:08;;;;;;;5.97;4.60;;;17.00;99.90;;;;;;5033029;28;20901;-69
2021/06/27 02:55:38;;;;;;;5.87;5.27;;;16.80;99.90;;;;;;5032330;28;20398;-68
2021/06/27 02:58:06;;;;;;;5.93;5.20;;;16.70;99.90;;;;;;5032649;28;20406;-69
2021/06/27 03:00:34;;;;;;;7.47;6.67;;;16.50;99.90;;;;;;5031955;28;20447;-70
2021/06/27 03:03:06;;;;;;;6.17;5.57;;;16.30;99.90;;;;;;5031892;28;20490;-69
2021/06/27 03:05:34;;;;;;;7.33;6.53;;;16.20;99.90;;;;;;5031976;28;20840;-69
2021/06/27 03:08:02;;;;;;;5.27;4.77;;;16.00;99.90;;;;;;5032076;28;20435;-69
2021/06/27 03:10:30;;;;;;;6.60;5.97;;;15.90;99.90;;;;;;5031736;28;20438;-68
2021/06/27 03:13:00;;;;;;;5.60;4.97;;;15.90;99.90;;;;;;5031712;28;20482;-69
2021/06/27 03:15:28;;;;;;;5.90;5.00;;;15.90;99.90;;;;;;5031331;28;20550;-69
2021/06/27 03:17:57;;;;;;;6.90;5.77;;;15.90;99.90;;;;;;5031972;28;20449;-69
2021/06/27 03:20:25;;;;;;;6.20;5.57;;;15.90;99.90;;;;;;5031463;28;20477;-68
2021/06/27 03:22:53;;;;;;;5.90;5.30;;;15.80;99.90;;;;;;5031392;28;20423;-68
2021/06/27 03:25:25;;;;;;;5.23;4.73;;;15.80;99.90;;;;;;5031820;28;20740;-69
2021/06/27 03:27:54;;;;;;;6.10;5.50;;;15.80;99.90;;;;;;5031535;28;20408;-68
2021/06/27 03:30:24;;;;;;;5.47;4.80;;;15.80;99.90;;;;;;5031523;28;20468;-68
2021/06/27 03:32:52;;;;;;;5.50;5.10;;;15.80;99.90;;;;;;5031342;28;20526;-69
2021/06/27 03:35:20;;;;;;;4.93;4.53;;;16.00;99.90;;;;;;5032126;28;20448;-69
2021/06/27 03:37:54;;;;;;;5.57;5.07;;;16.20;99.90;;;;;;5032036;28;20428;-69
2021/06/27 03:40:23;;;;;;;6.43;5.70;;;16.40;99.90;;;;;;5031474;28;20816;-68
2021/06/27 03:42:52;;;;;;;6.57;5.80;;;16.90;99.90;;;;;;5031295;28;20424;-68
2021/06/27 03:45:20;;;;;;;5.80;4.97;;;17.70;99.90;;;;;;5031285;28;20485;-68
2021/06/27 03:47:49;;;;;;;5.20;4.70;;;19.00;99.90;;;;;;5031697;28;20740;-68
2021/06/27 03:50:18;;;;;;;5.17;4.63;;;20.20;99.90;;;;;;5031537;28;20566;-68
2021/06/27 03:52:47;;;;;;;5.00;4.20;;;21.00;99.90;;;;;;5031247;28;20815;-68
2021/06/27 03:55:18;;;;;;;6.73;4.77;;;21.60;99.90;;;;;;5031777;28;20438;-68
2021/06/27 03:57:46;;;;;;;4.77;4.27;;;22.30;99.90;;;;;;5030137;28;20433;-68
2021/06/27 04:00:16;;;;;;;6.60;4.30;;;22.70;99.90;;;;;;5031252;28;20415;-69
2021/06/27 04:02:44;;;;;;;4.43;4.03;;;23.20;99.90;;;;;;5031126;28;20797;-70
2021/06/27 04:05:15;;;;;;;5.47;4.97;;;23.40;99.90;;;;;;5031556;28;20825;-69
2021/06/27 04:07:43;;;;;;;5.40;4.87;;;23.30;99.90;;;;;;5030896;28;20413;-69
2021/06/27 04:10:12;;;;;;;5.47;4.40;;;23.00;99.90;;;;;;5031024;28;20468;-69
2021/06/27 04:12:40;;;;;;;7.20;5.87;;;22.90;99.90;;;;;;5030993;28;20428;-68
2021/06/27 04:15:10;;;;;;;4.43;3.97;;;23.40;99.90;;;;;;5030840;28;20409;-69
2021/06/27 04:17:38;;;;;;;4.87;4.43;;;23.60;99.90;;;;;;5030833;28;20399;-69
2021/06/27 04:20:09;;;;;;;4.57;4.17;;;23.90;99.90;;;;;;5030055;28;20486;-69
2021/06/27 04:22:38;;;;;;;4.33;3.93;;;24.10;99.90;;;;;;5029831;28;20428;-68
2021/06/27 04:25:08;;;;;;;5.10;4.60;;;24.20;99.90;;;;;;5029965;28;20407;-68
2021/06/27 04:27:36;;;;;;;4.83;4.30;;;24.80;99.90;;;;;;5029919;28;20687;-68
2021/06/27 04:30:06;;;;;;;4.70;4.17;;;25.40;99.90;;;;;;5029855;28;20530;-69
2021/06/27 04:32:35;;;;;;;5.10;4.60;;;26.40;99.90;;;;;;5030078;28;20561;-69
2021/06/27 04:35:04;;;;;;;4.73;4.30;;;26.70;99.90;;;;;;5030424;28;20405;-68
2021/06/27 04:37:32;;;;;;;5.20;4.23;;;26.50;99.90;;;;;;5030421;28;20453;-67
2021/06/27 04:40:02;;;;;;;3.93;3.50;;;26.60;99.90;;;;;;5030172;28;20398;-70
2021/06/27 04:42:30;;;;;;;7.77;4.57;;;26.30;99.90;;;;;;5030488;28;20427;-68
2021/06/27 04:44:59;;;;;;;4.40;4.00;;;26.80;99.90;;;;;;5030802;28;20860;-69
2021/06/27 04:47:28;;;;;;;8.03;3.93;;;27.30;99.90;;;;;;5030588;28;20843;-69
2021/06/27 04:49:56;;;;;;;4.80;3.63;;;28.00;99.90;;;;;;5030587;28;20450;-69
2021/06/27 04:52:24;;;;;;;4.90;4.33;;;28.50;99.90;;;;;;5030869;28;20419;-69
2021/06/27 04:54:56;;;;;;;4.73;4.30;;;28.40;99.90;;;;;;5030804;28;20455;-69
2021/06/27 04:57:26;;;;;;;5.17;4.67;;;28.90;99.90;;;;;;5031467;28;20478;-69
2021/06/27 04:59:54;;;;;;;4.90;4.50;;;29.50;99.90;;;;;;5034874;28;20414;-69
2021/06/27 05:02:22;;;;;;;3.97;3.57;;;28.90;99.90;;;;;;5034556;28;20443;-69
2021/06/27 05:04:50;;;;;;;5.00;4.50;;;29.60;99.90;;;;;;5034217;28;20420;-69
2021/06/27 05:07:19;;;;;;;4.90;4.00;;;29.90;99.90;;;;;;5034355;28;20415;-69
2021/06/27 05:09:47;;;;;;;5.10;4.70;;;30.30;99.90;;;;;;5034213;28;20831;-68
2021/06/27 05:12:15;;;;;;;5.80;4.57;;;30.40;99.90;;;;;;5033920;28;20439;-69
2021/06/27 05:14:44;;;;;;;5.17;4.67;;;30.20;99.90;;;;;;5034149;28;20432;-69
2021/06/27 05:17:12;;;;;;;5.33;4.83;;;30.40;99.90;;;;;;5034234;28;20405;-69
2021/06/27 05:19:41;;;;;;;5.57;5.07;;;30.50;99.90;;;;;;5033956;28;20442;-69
2021/06/27 05:22:09;;;;;;;5.00;4.60;;;30.10;99.90;;;;;;5032704;28;20542;-69
2021/06/27 05:24:37;;;;;;;5.07;4.57;;;30.50;99.90;;;;;;5033828;28;20933;-69
2021/06/27 05:27:06;;;;;;;4.03;3.73;;;30.50;99.90;;;;;;5034035;28;20420;-69
2021/06/27 05:29:35;;;;;;;6.07;4.83;;;31.20;99.90;;;;;;5033926;28;20420;-69
2021/06/27 05:32:05;;;;;;;4.90;4.20;;;31.90;99.90;;;;;;5033560;28;20525;-69
2021/06/27 05:34:34;;;;;;;5.47;4.97;;;32.70;99.90;;;;;;5033730;28;20424;-70
2021/06/27 05:37:02;;;;;;;5.70;4.23;;;32.70;99.90;;;;;;5032393;28;20436;-70
2021/06/27 05:39:31;;;;;;;4.83;4.33;;;31.80;99.90;;;;;;5033676;28;20787;-69
2021/06/27 05:41:59;;;;;;;4.90;3.97;;;29.00;99.90;;;;;;5033519;28;20440;-69
2021/06/27 05:44:27;;;;;;;5.30;4.30;;;26.40;99.90;;;;;;5033679;28;20897;-69
2021/06/27 05:46:55;;;;;;;5.20;4.27;;;24.70;99.90;;;;;;5033432;28;20490;-69
2021/06/27 05:49:25;;;;;;;7.40;4.77;;;23.40;99.90;;;;;;5033471;28;20462;-69
2021/06/27 05:51:53;;;;;;;5.23;4.07;;;22.50;99.90;;;;;;5033277;28;20471;-71
2021/06/27 05:54:21;;;;;;;4.60;4.20;;;21.70;99.90;;;;;;5033665;28;20732;-69
2021/06/27 05:56:49;;;;;;;4.90;4.23;;;21.40;99.90;;;;;;5033369;28;20605;-69
2021/06/27 05:59:18;;;;;;;5.23;3.60;;;21.20;99.90;;;;;;5033353;28;20464;-69
2021/06/27 06:01:46;;;;;;;4.23;3.83;;;20.90;99.90;;;;;;5033217;28;20415;-69
2021/06/27 06:04:15;;;;;;;4.43;3.57;;;20.80;99.90;;;;;;5032837;28;20428;-69
2021/06/27 06:06:44;;;;;;;4.17;3.33;;;20.60;99.90;;;;;;5033180;28;20426;-69
2021/06/27 06:09:12;;;;;;;9.23;3.60;;;20.80;99.90;;;;;;5033009;28;20405;-70
2021/06/27 06:11:41;;;;;;;9.70;4.43;;;21.10;99.90;;;;;;5033031;28;20452;-69
2021/06/27 06:14:09;;;;;;;5.40;3.80;;;21.30;99.90;;;;;;5032897;28;20502;-69
2021/06/27 06:16:37;;;;;;;6.27;4.53;;;21.50;99.90;;;;;;5032856;28;20399;-68
2021/06/27 06:19:07;;;;;;;3.63;2.83;;;21.60;99.90;;;;;;5032773;28;20402;-68
2021/06/27 06:21:35;;;;;;;5.23;4.73;;;21.70;99.90;;;;;;5032898;28;20451;-68
2021/06/27 06:24:06;;;;;;;4.50;3.50;;;21.80;99.90;;;;;;5032799;28;20463;-68
2021/06/27 06:26:35;;;;;;;4.33;2.97;;;21.90;99.90;;;;;;5032971;28;20388;-68
2021/06/27 06:29:04;;;;;;;4.00;2.90;;;22.00;99.90;;;;;;5032570;28;20403;-69
2021/06/27 06:31:32;;;;;;;3.50;3.13;;;22.10;99.90;;;;;;5032477;28;20555;-68
2021/06/27 06:34:01;;;;;;;6.20;3.50;;;22.00;99.90;;;;;;5032432;28;20394;-68
2021/06/27 06:36:29;;;;;;;3.03;2.60;;;22.10;99.90;;;;;;5032861;28;20403;-71
2021/06/27 06:38:57;;;;;;;3.50;3.20;;;21.80;99.90;;;;;;5032541;28;20401;-70
2021/06/27 06:41:27;;;;;;;4.00;3.37;;;21.40;99.90;;;;;;5032666;28;20444;-70
2021/06/27 06:43:56;;;;;;;4.20;3.53;;;21.70;99.90;;;;;;5032403;28;20551;-70
2021/06/27 06:46:24;;;;;;;3.97;3.27;;;21.70;99.90;;;;;;5032642;28;20428;-70
2021/06/27 06:48:56;;;;;;;3.87;3.37;;;22.00;99.90;;;;;;5032473;28;20449;-69
2021/06/27 06:51:24;;;;;;;4.13;3.83;;;22.10;99.90;;;;;;5032468;28;20799;-69
2021/06/27 06:53:54;;;;;;;2.80;2.60;;;22.20;99.90;;;;;;5032496;28;20398;-69
2021/06/27 06:56:24;;;;;;;3.80;3.10;;;22.20;99.90;;;;;;5032425;28;20447;-68
2021/06/27 06:58:53;;;;;;;4.27;3.17;;;22.30;99.90;;;;;;5032103;28;20406;-69
2021/06/27 07:01:22;;;;;;;4.00;3.17;;;22.20;99.90;;;;;;5032020;28;20756;-70
2021/06/27 07:03:50;;;;;;;4.53;3.10;;;22.20;99.90;;;;;;5030759;28;20447;-69
2021/06/27 07:06:19;;;;;;;3.40;3.10;;;22.50;99.90;;;;;;5032052;28;20435;-69
2021/06/27 07:08:47;;;;;;;3.40;3.10;;;22.70;99.90;;;;;;5031934;28;20422;-69
2021/06/27 07:11:15;;;;;;;3.57;2.70;;;22.80;99.90;;;;;;5030705;28;20454;-68
2021/06/27 07:13:43;;;;;;;3.60;3.30;;;22.90;99.90;;;;;;5031876;28;20395;-69
2021/06/27 07:16:13;;;;;;;3.23;2.93;;;22.90;99.90;;;;;;5031958;28;20810;-68
2021/06/27 07:18:41;;;;;;;3.20;2.87;;;23.00;99.90;;;;;;5031896;28;20424;-69
2021/06/27 07:21:09;;;;;;;3.60;3.07;;;23.00;99.90;;;;;;5031267;28;20448;-69
2021/06/27 07:23:37;;;;;;;4.83;4.10;;;22.80;99.90;;;;;;5030454;28;20433;-69
2021/06/27 07:26:05;;;;;;;3.43;3.10;;;22.70;99.90;;;;;;5032127;28;20782;-69
2021/06/27 07:28:34;;;;;;;3.57;3.10;;;22.70;99.90;;;;;;5032301;28;20395;-69
2021/06/27 07:31:02;;;;;;;4.33;3.93;;;22.70;99.90;;;;;;5031751;28;20463;-69
2021/06/27 07:33:32;;;;;;;5.60;3.17;;;22.60;99.90;;;;;;5031250;28;20471;-68
2021/06/27 07:36:00;;;;;;;4.63;3.27;;;22.70;99.90;;;;;;5031547;28;20770;-68
2021/06/27 07:38:28;;;;;;;3.50;3.20;;;22.80;99.90;;;;;;5031485;28;20395;-68
2021/06/27 07:40:56;;;;;;;3.90;3.37;;;22.90;99.90;;;;;;5031203;28;20436;-68
2021/06/27 07:43:25;;;;;;;3.10;2.80;;;22.90;99.90;;;;;;5031275;28;20401;-68
2021/06/27 07:45:53;;;;;;;3.90;3.47;;;23.10;99.90;;;;;;5031367;28;20443;-68
2021/06/27 07:48:21;;;;;;;3.80;3.40;;;23.40;99.90;;;;;;5031333;28;20435;-67
2021/06/27 07:50:51;;;;;;;3.80;3.03;;;23.60;99.90;;;;;;5029656;28;20487;-68
2021/06/27 07:53:19;;;;;;;3.30;2.90;;;23.60;99.90;;;;;;5030985;28;20431;-69
2021/06/27 07:55:48;;;;;;;3.40;3.10;;;23.50;99.90;;;;;;5031194;28;20405;-70
2021/06/27 07:58:17;;;;;;;5.03;3.90;;;23.40;99.90;;;;;;5031110;28;20420;-69
2021/06/27 08:00:46;;;;;;;3.80;3.40;;;23.50;99.90;;;;;;5030697;28;20448;-69
2021/06/27 08:03:14;;;;;;;5.20;4.57;;;23.60;99.90;;;;;;5030660;28;20406;-69
2021/06/27 08:05:42;;;;;;;3.10;2.80;;;23.80;99.90;;;;;;5031237;28;20394;-68
2021/06/27 08:08:13;;;;;;;3.37;3.07;;;23.90;99.90;;;;;;5031059;28;20424;-68
2021/06/27 08:10:41;;;;;;;3.47;2.97;;;23.90;99.90;;;;;;5030897;28;20443;-69
2021/06/27 08:13:09;;;;;;;7.50;3.30;;;23.80;99.90;;;;;;5030669;28;20472;-69
2021/06/27 08:15:38;;;;;;;3.40;3.10;;;23.70;99.90;;;;;;5031119;28;20404;-69
2021/06/27 08:18:07;;;;;;;4.23;3.30;;;23.50;99.90;;;;;;5030856;28;20797;-68
2021/06/27 08:20:35;;;;;;;3.80;2.90;;;23.40;99.90;;;;;;5030659;28;20440;-68
2021/06/27 08:23:05;;;;;;;3.40;3.10;;;23.50;99.90;;;;;;5030333;28;20424;-68
2021/06/27 08:25:34;;;;;;;3.27;2.80;;;23.20;99.90;;;;;;5030831;28;20413;-69
2021/06/27 08:28:03;;;;;;;3.27;2.87;;;23.40;99.90;;;;;;5030669;28;20410;-68
2021/06/27 08:30:32;;;;;;;3.13;2.83;;;23.40;99.90;;;;;;5030232;28;20444;-69
2021/06/27 08:33:01;;;;;;;4.00;2.80;;;23.30;99.90;;;;;;5028096;28;20450;-68
2021/06/27 08:35:30;;;;;;;6.57;3.17;;;23.40;99.90;;;;;;5030629;28;20423;-69
2021/06/27 08:37:58;;;;;;;3.67;3.33;;;23.50;99.90;;;;;;5030560;28;20439;-71
2021/06/27 08:40:27;;;;;;;4.87;3.00;;;23.60;99.90;;;;;;5030259;28;20440;-68
2021/06/27 08:42:56;;;;;;;3.60;3.30;;;23.70;99.90;;;;;;5029961;28;20432;-68
2021/06/27 08:45:25;;;;;;;3.73;3.30;;;23.90;99.90;;;;;;5030702;28;20417;-69
2021/06/27 08:47:54;;;;;;;4.30;3.00;;;23.90;99.90;;;;;;5030760;28;20412;-68
2021/06/27 08:50:23;;;;;;;3.70;3.17;;;24.10;99.90;;;;;;5029182;28;20423;-68
2021/06/27 08:52:52;;;;;;;3.87;3.00;;;24.30;99.90;;;;;;5030224;28;20482;-68
2021/06/27 08:55:20;;;;;;;3.33;2.67;;;24.50;99.90;;;;;;5030734;28;20921;-70
2021/06/27 08:57:49;;;;;;;3.17;2.83;;;24.50;99.90;;;;;;5030552;28;20416;-69
2021/06/27 09:00:19;;;;;;;3.10;2.73;;;24.40;99.90;;;;;;5030219;28;20539;-69
2021/06/27 09:02:48;;;;;;;3.70;3.40;;;24.30;99.90;;;;;;5030016;28;20760;-69
2021/06/27 09:05:16;;;;;;;4.00;2.90;;;24.20;99.90;;;;;;5030410;28;20420;-69
2021/06/27 09:07:44;;;;;;;3.33;2.33;;;24.20;99.90;;;;;;5030400;28;20896;-69
2021/06/27 09:10:25;;;;;;;2.90;2.60;;;24.20;99.90;;;;;;5030032;28;20423;-69
2021/06/27 09:12:55;;;;;;;3.23;2.93;;;24.30;99.90;;;;;;5029842;28;20445;-70
2021/06/27 09:15:40;;;;;;;5.70;2.60;;;24.40;99.90;;;;;;5030349;28;20424;-69
2021/06/27 09:18:11;;;;;;;3.10;2.70;;;24.30;99.90;;;;;;5029065;28;20444;-70
2021/06/27 09:20:39;;;;;;;3.40;2.80;;;24.30;99.90;;;;;;5028635;28;20467;-69
2021/06/27 09:23:09;;;;;;;2.83;2.57;;;24.60;99.90;;;;;;5029981;28;20763;-69
2021/06/27 09:25:38;;;;;;;2.80;2.60;;;24.90;99.90;;;;;;5030235;28;20507;-69
2021/06/27 09:28:10;;;;;;;3.90;2.43;;;25.10;99.90;;;;;;5030684;28;20428;-68
2021/06/27 09:30:42;;;;;;;3.50;2.80;;;25.30;99.90;;;;;;5029964;28;20812;-68
2021/06/27 09:33:12;;;;;;;3.30;2.87;;;25.30;99.90;;;;;;5029634;28;20467;-70
2021/06/27 09:35:59;;;;;;;2.10;1.90;;;25.00;99.90;;;;;;5030216;28;20929;-68
2021/06/27 09:38:36;;;;;;;3.70;3.03;;;24.80;99.90;;;;;;5030201;28;20791;-70
2021/06/27 09:41:08;;;;;;;4.03;2.90;;;24.50;99.90;;;;;;5029928;28;20448;-68
2021/06/27 09:43:37;;;;;;;3.13;2.83;;;24.60;99.90;;;;;;5031701;28;20487;-70
2021/06/27 09:46:12;;;;;;;4.47;2.83;;;24.80;99.90;;;;;;5032385;28;20418;-69
2021/06/27 09:48:53;;;;;;;3.13;2.57;;;25.10;99.90;;;;;;5033866;28;20430;-69
2021/06/27 09:51:23;;;;;;;4.30;2.43;;;25.10;99.90;;;;;;5033650;28;20794;-69
2021/06/27 09:53:51;;;;;;;2.97;2.67;;;25.10;99.90;;;;;;5034330;28;20470;-67
2021/06/27 09:56:23;;;;;;;2.40;2.20;;;24.90;99.90;;;;;;5036586;28;20424;-70
2021/06/27 09:59:02;;;;;;;2.87;2.60;;;24.90;99.90;;;;;;5035270;28;20796;-69
2021/06/27 10:01:35;;;;;;;2.00;1.73;;;24.80;99.90;;;;;;5035261;28;20446;-70
2021/06/27 10:04:06;;;;;;;2.90;2.47;;;24.90;99.90;;;;;;5033335;28;20518;-69
2021/06/27 10:06:50;;;;;;;2.50;2.30;;;25.20;99.90;;;;;;5033743;28;20394;-69
2021/06/27 10:09:21;;;;;;;3.20;2.50;;;25.50;99.90;;;;;;5032617;28;21040;-70
2021/06/27 10:12:01;;;;;;;3.10;2.80;;;25.60;99.90;;;;;;5032625;28;20522;-70
2021/06/27 10:14:32;;;;;;;3.23;2.77;;;25.50;99.90;;;;;;5034266;28;20929;-71
2021/06/27 10:17:05;;;;;;;3.10;2.50;;;25.30;99.90;;;;;;5032729;28;20947;-70
2021/06/27 10:19:34;;;;;;;2.73;2.50;;;25.50;99.90;;;;;;5033808;28;20506;-68
2021/06/27 10:22:04;;;;;;;3.80;3.10;;;25.90;99.90;;;;;;5033491;28;20859;-68
2021/06/27 10:24:33;;;;;;;2.57;2.20;;;26.50;99.90;;;;;;5033053;28;20483;-68
2021/06/27 10:27:05;;;;;;;5.23;2.70;;;26.90;99.90;;;;;;5033662;28;20483;-71
2021/06/27 10:29:38;;;;;;;3.17;2.87;;;27.30;99.90;;;;;;5032782;28;20535;-70
2021/06/27 10:32:08;;;;;;;4.33;3.37;;;27.50;99.90;;;;;;5040285;23;20752;-83
2021/06/27 10:34:37;;;;;;;4.10;3.70;;;27.10;99.90;;;;;;5013155;28;20407;-83
2021/06/27 10:37:10;;;;;;;4.93;4.40;;;26.90;99.90;;;;;;5014569;28;20434;-84
2021/06/27 10:39:39;;;;;;;4.50;4.10;;;26.70;99.90;;;;;;5015877;28;20417;-79
2021/06/27 10:42:08;;;;;;;4.40;3.87;;;26.20;99.90;;;;;;4998727;28;20449;-81
2021/06/27 10:44:56;;;;;;;6.93;3.73;;;26.30;99.90;;;;;;5012656;28;20426;-84
2021/06/27 10:47:32;;;;;;;3.97;3.23;;;26.40;99.90;;;;;;5012357;28;20406;-83
2021/06/27 10:50:04;;;;;;;3.33;3.03;;;26.40;99.90;;;;;;5014023;28;20501;-81
2021/06/27 10:53:02;;;;;;;2.83;2.37;;;26.40;99.90;;;;;;4994082;28;20521;-82
2021/06/27 10:55:32;;;;;;;2.77;2.40;;;26.40;99.90;;;;;;5008296;28;20493;-83
2021/06/27 10:58:06;;;;;;;2.83;2.60;;;26.50;99.90;;;;;;5008479;28;20430;-83
2021/06/27 11:01:09;;;;;;;3.90;3.50;;;26.80;99.90;;;;;;5009151;28;20409;-83
2021/06/27 11:03:42;;;;;;;4.13;3.83;;;26.90;99.90;;;;;;5008451;28;20416;-83
2021/06/27 11:06:38;;;;;;;3.03;2.70;;;26.80;99.90;;;;;;5009159;28;20418;-82
2021/06/27 11:09:27;;;;;;;3.67;3.13;;;26.70;99.90;;;;;;5003503;28;20468;-82
2021/06/27 11:11:57;;;;;;;3.40;2.90;;;26.60;99.90;;;;;;4989935;28;20457;-83
2021/06/27 11:14:27;;;;;;;8.10;3.27;;;26.60;99.90;;;;;;5007594;28;20443;-82
2021/06/27 11:17:00;;;;;;;3.13;2.83;;;26.60;99.90;;;;;;4990978;28;20412;-82
2021/06/27 11:23:09;;;;;;;3.47;3.17;;;26.40;99.90;;;;;;4988359;28;20466;-82
2021/06/27 11:25:40;;;;;;;3.23;2.93;;;26.40;99.90;;;;;;4991128;28;20442;-81
2021/06/27 11:28:35;;;;;;;3.30;3.00;;;26.60;99.90;;;;;;5008179;28;20423;-83
2021/06/27 11:31:26;;;;;;;3.10;2.80;;;26.70;99.90;;;;;;4991160;28;20445;-84
2021/06/27 11:34:23;;;;;;;3.50;3.20;;;27.00;99.90;;;;;;5007817;28;20474;-83
2021/06/27 11:36:54;;;;;;;3.60;3.30;;;27.10;99.90;;;;;;4989164;28;20758;-82
2021/06/27 11:39:47;;;;;;;3.30;2.83;;;27.50;99.90;;;;;;4990010;28;20442;-83
2021/06/27 11:42:46;;;;;;;3.20;2.90;;;27.30;99.90;;;;;;4990411;28;20556;-83
2021/06/27 11:45:44;;;;;;;3.40;3.10;;;27.20;99.90;;;;;;4982527;28;20434;-82
2021/06/27 11:48:12;;;;;;;3.20;2.90;;;27.10;99.90;;;;;;4991485;28;20453;-81
2021/06/27 11:50:47;;;;;;;3.13;2.90;;;26.90;99.90;;;;;;4992702;28;20438;-84
2021/06/27 11:53:17;;;;;;;2.80;2.60;;;26.70;99.90;;;;;;4991497;28;20477;-83
2021/06/27 11:56:03;;;;;;;2.27;1.93;;;26.90;99.90;;;;;;4992245;28;20470;-82
2021/06/27 11:58:36;;;;;;;3.00;2.70;;;27.00;99.90;;;;;;4994257;28;20530;-83
2021/06/27 12:01:10;;;;;;;3.63;2.77;;;26.80;99.90;;;;;;5008390;28;20428;-83
2021/06/27 12:03:48;;;;;;;4.43;2.47;;;26.50;99.90;;;;;;5006359;28;20489;-83
2021/06/27 12:06:20;;;;;;;3.30;2.97;;;26.60;99.90;;;;;;4992110;28;20537;-82
2021/06/27 12:08:49;;;;;;;3.30;3.00;;;26.70;99.90;;;;;;4994263;28;20450;-82
2021/06/27 12:11:21;;;;;;;6.67;4.90;;;26.50;99.90;;;;;;4995750;28;20444;-82
2021/06/27 12:13:56;;;;;;;4.60;3.07;;;26.60;99.90;;;;;;4994874;28;20446;-81
2021/06/27 12:16:30;;;;;;;2.97;2.63;;;26.60;99.90;;;;;;4994239;28;20442;-83
2021/06/27 12:19:05;;;;;;;3.17;2.83;;;26.50;99.90;;;;;;5012612;28;20664;-81
2021/06/27 12:21:35;;;;;;;3.13;2.77;;;27.20;99.90;;;;;;5011570;28;20437;-81
2021/06/27 12:24:03;;;;;;;2.93;2.63;;;27.60;99.90;;;;;;5007104;28;20441;-81
2021/06/27 12:26:33;;;;;;;2.90;2.67;;;27.70;99.90;;;;;;5006498;28;20431;-82
2021/06/27 12:29:01;;;;;;;3.20;2.73;;;27.30;99.90;;;;;;4989417;28;20434;-82
2021/06/27 12:31:32;;;;;;;4.20;2.70;;;27.20;99.90;;;;;;4989978;28;20494;-83
2021/06/27 12:34:05;;;;;;;3.43;2.90;;;27.00;99.90;;;;;;5006903;28;20484;-83
2021/06/27 12:36:39;;;;;;;2.80;2.50;;;26.90;99.90;;;;;;4989726;28;20749;-83
2021/06/27 12:39:16;;;;;;;2.73;2.53;;;26.80;99.90;;;;;;4989775;28;20453;-80
2021/06/27 12:41:46;;;;;;;3.70;2.20;;;26.80;99.90;;;;;;4998108;28;20445;-81
2021/06/27 12:44:17;;;;;;;2.93;2.67;;;27.10;99.90;;;;;;5016179;28;20485;-80
2021/06/27 12:46:46;;;;;;;3.17;2.63;;;27.60;99.90;;;;;;4999728;28;20426;-81
2021/06/27 12:49:26;;;;;;;3.50;3.20;;;27.40;99.90;;;;;;4997210;28;20457;-83
2021/06/27 12:52:02;;;;;;;2.70;2.40;;;27.10;99.90;;;;;;4988297;28;20461;-80
2021/06/27 12:54:33;;;;;;;2.97;2.40;;;27.10;99.90;;;;;;4988733;28;20465;-83
2021/06/27 12:57:09;;;;;;;2.93;2.40;;;27.10;99.90;;;;;;4989624;28;20541;-83
2021/06/27 12:59:50;;;;;;;2.90;2.60;;;27.00;99.90;;;;;;4989516;28;20468;-82
2021/06/27 13:02:34;;;;;;;2.80;2.60;;;27.10;99.90;;;;;;5008317;28;20453;-82
2021/06/27 13:05:05;;;;;;;2.50;2.07;;;27.10;99.90;;;;;;4991132;28;20441;-80
2021/06/27 13:07:35;;;;;;;4.07;2.77;;;27.30;99.90;;;;;;4992036;28;20452;-82
2021/06/27 13:10:13;;;;;;;2.47;2.27;;;27.20;99.90;;;;;;5006312;28;20426;-82